createdAt,value
2023-02-01T00:00:19.761Z,2.60
2023-02-01T00:02:48.007Z,2.60
2023-02-01T00:05:16.304Z,2.60
2023-02-01T00:07:44.284Z,2.50
2023-02-01T00:10:14.248Z,2.60
2023-02-01T00:12:42.188Z,2.50
2023-02-01T00:15:10.708Z,2.50
2023-02-01T00:17:38.724Z,2.50
2023-02-01T00:20:08.067Z,2.50
2023-02-01T00:22:36.145Z,2.50
2023-02-01T00:25:04.173Z,2.50
2023-02-01T00:27:33.836Z,2.50
2023-02-01T00:30:01.829Z,2.50
2023-02-01T00:32:29.840Z,2.40
2023-02-01T00:34:57.849Z,2.50
2023-02-01T00:37:25.925Z,2.50
2023-02-01T00:39:55.832Z,2.50
2023-02-01T00:42:23.818Z,2.50
2023-02-01T00:44:53.126Z,2.40
2023-02-01T00:47:21.201Z,2.50
2023-02-01T00:49:49.198Z,2.40
2023-02-01T00:52:17.153Z,2.40
2023-02-01T00:54:45.102Z,2.50
2023-02-01T00:57:13.072Z,2.40
2023-02-01T00:59:41.083Z,2.40
2023-02-01T01:02:11.728Z,2.40
2023-02-01T01:04:39.694Z,2.40
2023-02-01T01:07:07.650Z,2.40
2023-02-01T01:09:36.030Z,2.40
2023-02-01T01:12:04.338Z,2.30
2023-02-01T01:14:32.396Z,2.30
2023-02-01T01:17:00.416Z,2.30
2023-02-01T01:19:29.932Z,2.30
2023-02-01T01:21:57.891Z,2.20
2023-02-01T01:24:25.860Z,2.30
2023-02-01T01:26:54.124Z,2.20
2023-02-01T01:29:22.097Z,2.20
2023-02-01T01:31:50.140Z,2.20
2023-02-01T01:34:18.085Z,2.20
2023-02-01T01:36:47.448Z,2.20
2023-02-01T01:39:15.440Z,2.20
2023-02-01T01:41:43.505Z,2.20
2023-02-01T01:44:44.729Z,2.20
2023-02-01T01:47:12.987Z,2.10
2023-02-01T01:49:41.229Z,2.10
2023-02-01T01:52:11.547Z,2.10
2023-02-01T01:54:45.360Z,2.10
2023-02-01T01:57:16.487Z,2.10
2023-02-01T01:59:49.573Z,2.10
2023-02-01T02:02:18.159Z,2.10
2023-02-01T02:04:46.478Z,2.10
2023-02-01T02:07:19.820Z,2.10
2023-02-01T02:09:59.522Z,2.10
2023-02-01T02:12:30.797Z,2.10
2023-02-01T02:14:59.016Z,2.10
2023-02-01T02:17:39.440Z,2.10
2023-02-01T02:20:37.611Z,2.10
2023-02-01T02:23:47.471Z,2.10
2023-02-01T02:26:50.016Z,2.10
2023-02-01T02:29:56.826Z,2.10
2023-02-01T02:33:02.962Z,2.20
2023-02-01T02:35:41.373Z,2.20
2023-02-01T02:38:19.103Z,2.10
2023-02-01T02:40:51.572Z,2.10
2023-02-01T02:43:40.477Z,2.20
2023-02-01T02:46:32.242Z,2.20
2023-02-01T02:49:07.451Z,2.20
2023-02-01T02:51:59.013Z,2.20
2023-02-01T02:54:53.068Z,2.20
2023-02-01T02:57:41.376Z,2.20
2023-02-01T03:00:31.247Z,2.20
2023-02-01T03:03:16.768Z,2.20
2023-02-01T03:05:46.714Z,2.20
2023-02-01T03:08:18.118Z,2.20
2023-02-01T03:10:58.515Z,2.20
2023-02-01T03:13:34.260Z,2.20
2023-02-01T03:16:09.098Z,2.30
2023-02-01T03:18:44.965Z,2.20
2023-02-01T03:21:19.859Z,2.30
2023-02-01T03:23:50.920Z,2.30
2023-02-01T03:26:22.365Z,2.20
2023-02-01T03:28:56.690Z,2.20
2023-02-01T03:31:25.323Z,2.20
2023-02-01T03:33:53.580Z,2.20
2023-02-01T03:36:29.820Z,2.20
2023-02-01T03:39:04.945Z,2.30
2023-02-01T03:41:39.439Z,2.20
2023-02-01T03:44:15.469Z,2.20
2023-02-01T03:46:48.280Z,2.20
2023-02-01T03:49:21.112Z,2.30
2023-02-01T03:51:50.932Z,2.20
2023-02-01T03:54:21.376Z,2.20
2023-02-01T03:56:50.435Z,2.20
2023-02-01T03:59:18.404Z,2.20
2023-02-01T04:01:46.557Z,2.20
2023-02-01T04:04:20.903Z,2.20
2023-02-01T04:06:49.246Z,2.20
2023-02-01T04:09:17.571Z,2.30
2023-02-01T04:11:46.847Z,2.20
2023-02-01T04:14:14.742Z,2.20
2023-02-01T04:16:42.780Z,2.20
2023-02-01T04:19:10.812Z,2.20
2023-02-01T04:21:39.139Z,2.30
2023-02-01T04:24:08.101Z,2.30
2023-02-01T04:26:36.307Z,2.20
2023-02-01T04:29:05.838Z,2.20
2023-02-01T04:31:33.998Z,2.30
2023-02-01T04:34:01.982Z,2.30
2023-02-01T04:36:29.931Z,2.30
2023-02-01T04:38:57.813Z,2.30
2023-02-01T04:41:25.847Z,2.30
2023-02-01T04:43:54.161Z,2.30
2023-02-01T04:46:24.245Z,2.20
2023-02-01T04:48:52.319Z,2.20
2023-02-01T04:51:20.536Z,2.20
2023-02-01T04:53:48.692Z,2.20
2023-02-01T04:56:16.704Z,2.20
2023-02-01T04:58:44.626Z,2.20
2023-02-01T05:01:12.610Z,2.20
2023-02-01T05:03:42.108Z,2.30
2023-02-01T05:06:10.262Z,2.30
2023-02-01T05:08:38.930Z,2.20
2023-02-01T05:11:07.344Z,2.20
2023-02-01T05:13:49.492Z,2.20
2023-02-01T05:16:17.930Z,2.20
2023-02-01T05:18:47.630Z,2.30
2023-02-01T05:21:15.615Z,2.20
2023-02-01T05:23:57.564Z,2.30
2023-02-01T05:26:26.263Z,2.30
2023-02-01T05:28:54.375Z,2.30
2023-02-01T05:31:22.958Z,2.30
2023-02-01T05:33:52.644Z,2.30
2023-02-01T05:36:20.758Z,2.30
2023-02-01T05:38:48.996Z,2.30
2023-02-01T05:41:17.502Z,2.20
2023-02-01T05:43:45.700Z,2.30
2023-02-01T05:46:14.176Z,2.30
2023-02-01T05:48:45.430Z,2.30
2023-02-01T05:51:15.044Z,2.20
2023-02-01T05:53:43.205Z,2.20
2023-02-01T05:56:11.406Z,2.20
2023-02-01T05:58:39.477Z,2.20
2023-02-01T06:01:07.588Z,2.20
2023-02-01T06:03:36.509Z,2.20
2023-02-01T06:06:05.270Z,2.20
2023-02-01T06:08:36.873Z,2.20
2023-02-01T06:11:06.708Z,2.30
2023-02-01T06:13:35.779Z,2.30
2023-02-01T06:16:04.551Z,2.20
2023-02-01T06:18:32.652Z,2.20
2023-02-01T06:21:02.289Z,2.30
2023-02-01T06:23:30.648Z,2.20
2023-02-01T06:26:05.659Z,2.30
2023-02-01T06:28:35.393Z,2.30
2023-02-01T06:31:07.466Z,2.30
2023-02-01T06:33:35.860Z,2.30
2023-02-01T06:36:05.680Z,2.30
2023-02-01T06:38:35.607Z,2.30
2023-02-01T06:41:07.969Z,2.30
2023-02-01T06:43:35.971Z,2.30
2023-02-01T06:46:05.502Z,2.30
2023-02-01T06:48:33.822Z,2.20
2023-02-01T06:51:02.033Z,2.20
2023-02-01T06:53:30.276Z,2.30
2023-02-01T06:56:00.294Z,2.30
2023-02-01T06:58:32.813Z,2.20
2023-02-01T07:01:06.293Z,2.20
2023-02-01T07:03:34.573Z,2.20
2023-02-01T07:06:02.576Z,2.30
2023-02-01T07:08:31.324Z,2.30
2023-02-01T07:11:02.921Z,2.30
2023-02-01T07:13:32.564Z,2.30
2023-02-01T07:16:01.658Z,2.20
2023-02-01T07:18:30.821Z,2.30
2023-02-01T07:20:59.235Z,2.30
2023-02-01T07:23:28.076Z,2.30
2023-02-01T07:25:57.310Z,2.40
2023-02-01T07:28:26.144Z,2.30
2023-02-01T07:30:55.498Z,2.40
2023-02-01T07:33:27.945Z,2.30
2023-02-01T07:35:56.374Z,2.30
2023-02-01T07:38:24.686Z,2.30
2023-02-01T07:40:52.655Z,2.30
2023-02-01T07:43:20.654Z,2.40
2023-02-01T07:45:53.724Z,2.40
2023-02-01T07:48:24.148Z,2.50
2023-02-01T07:50:59.420Z,2.40
2023-02-01T07:53:27.454Z,2.40
2023-02-01T07:55:56.938Z,2.50
2023-02-01T07:58:25.232Z,2.50
2023-02-01T08:01:11.210Z,2.40
2023-02-01T08:03:40.477Z,2.40
2023-02-01T08:06:08.864Z,2.40
2023-02-01T08:08:36.958Z,2.40
2023-02-01T08:11:07.253Z,2.40
2023-02-01T08:13:36.811Z,2.50
2023-02-01T08:16:06.829Z,2.50
2023-02-01T08:18:35.423Z,2.50
2023-02-01T08:21:08.383Z,2.50
2023-02-01T08:23:37.044Z,2.50
2023-02-01T08:26:10.438Z,2.50
2023-02-01T08:28:38.939Z,2.50
2023-02-01T08:31:08.676Z,2.60
2023-02-01T08:33:37.996Z,2.50
2023-02-01T08:36:08.921Z,2.50
2023-02-01T08:38:37.934Z,2.50
2023-02-01T08:41:10.300Z,2.60
2023-02-01T08:43:38.392Z,2.60
2023-02-01T08:46:07.386Z,2.50
2023-02-01T08:48:36.717Z,2.50
2023-02-01T08:51:07.655Z,2.60
2023-02-01T08:53:36.872Z,2.60
2023-02-01T08:56:05.529Z,2.60
2023-02-01T08:58:33.557Z,2.60
2023-02-01T09:01:05.297Z,2.70
2023-02-01T09:03:33.432Z,2.70
2023-02-01T09:06:05.799Z,2.70
2023-02-01T09:08:36.269Z,2.70
2023-02-01T09:11:05.987Z,2.70
2023-02-01T09:13:34.586Z,2.70
2023-02-01T09:16:02.632Z,2.80
2023-02-01T09:18:30.801Z,2.70
2023-02-01T09:20:58.817Z,2.80
2023-02-01T09:23:26.807Z,2.80
2023-02-01T09:25:56.135Z,2.80
2023-02-01T09:28:24.093Z,2.90
2023-02-01T09:30:52.068Z,2.80
2023-02-01T09:33:22.291Z,2.90
2023-02-01T09:35:50.244Z,2.90
2023-02-01T09:38:18.236Z,2.90
2023-02-01T09:40:49.213Z,2.90
2023-02-01T09:43:39.785Z,2.90
2023-02-01T09:46:20.640Z,2.90
2023-02-01T09:48:51.430Z,3.00
2023-02-01T09:51:24.468Z,2.90
2023-02-01T09:54:02.095Z,2.90
2023-02-01T09:56:37.622Z,2.90
2023-02-01T09:59:18.118Z,2.90
2023-02-01T10:01:46.168Z,2.90
2023-02-01T10:04:15.596Z,2.90
2023-02-01T10:06:59.127Z,2.90
2023-02-01T10:09:55.115Z,2.90
2023-02-01T10:12:51.001Z,3.00
2023-02-01T10:15:30.924Z,3.00
2023-02-01T10:18:18.329Z,3.00
2023-02-01T10:21:05.792Z,3.00
2023-02-01T10:24:17.264Z,3.00
2023-02-01T10:26:53.177Z,3.10
2023-02-01T10:29:24.559Z,3.10
2023-02-01T10:31:55.072Z,3.10
2023-02-01T10:34:25.647Z,3.10
2023-02-01T10:36:58.188Z,3.10
2023-02-01T10:39:26.085Z,3.20
2023-02-01T10:41:55.876Z,3.20
2023-02-01T10:44:28.381Z,3.20
2023-02-01T10:46:57.721Z,3.20
2023-02-01T10:49:39.628Z,3.20
2023-02-01T10:52:14.669Z,3.20
2023-02-01T10:54:43.089Z,3.20
2023-02-01T10:57:21.343Z,3.30
2023-02-01T10:59:49.450Z,3.20
2023-02-01T11:02:27.465Z,3.20
2023-02-01T11:05:02.451Z,3.20
2023-02-01T11:07:35.048Z,3.20
2023-02-01T11:10:03.047Z,3.30
2023-02-01T11:12:34.882Z,3.20
2023-02-01T11:15:15.877Z,3.20
2023-02-01T11:17:48.325Z,3.10
2023-02-01T11:20:17.829Z,3.10
2023-02-01T11:22:50.555Z,3.10
2023-02-01T11:25:20.304Z,3.10
2023-02-01T11:27:56.089Z,3.10
2023-02-01T11:30:34.154Z,3.10
2023-02-01T11:33:07.187Z,3.10
2023-02-01T11:35:40.970Z,3.10
2023-02-01T11:38:19.210Z,3.20
2023-02-01T11:40:47.247Z,3.20
2023-02-01T11:43:19.946Z,3.20
2023-02-01T11:46:00.658Z,3.20
2023-02-01T11:48:32.306Z,3.20
2023-02-01T11:51:16.633Z,3.20
2023-02-01T11:54:03.482Z,3.20
2023-02-01T11:56:38.080Z,3.20
2023-02-01T11:59:28.880Z,3.20
2023-02-01T12:02:18.152Z,3.20
2023-02-01T12:05:07.425Z,3.30
2023-02-01T12:07:57.133Z,3.30
2023-02-01T12:10:33.059Z,3.30
2023-02-01T12:13:12.282Z,3.30
2023-02-01T12:15:51.708Z,3.30
2023-02-01T12:18:54.198Z,3.20
2023-02-01T12:21:44.456Z,3.20
2023-02-01T12:24:42.093Z,3.20
2023-02-01T12:27:25.290Z,3.10
2023-02-01T12:30:19.682Z,3.10
2023-02-01T12:33:00.840Z,3.20
2023-02-01T12:36:00.757Z,3.20
2023-02-01T12:38:51.610Z,3.10
2023-02-01T12:41:46.927Z,3.00
2023-02-01T12:44:33.075Z,3.00
2023-02-01T12:47:07.600Z,3.00
2023-02-01T12:49:46.200Z,3.00
2023-02-01T12:52:20.059Z,3.10
2023-02-01T12:54:57.238Z,3.10
2023-02-01T12:57:28.806Z,3.10
2023-02-01T13:00:03.748Z,3.10
2023-02-01T13:02:40.190Z,3.10
2023-02-01T13:05:19.082Z,3.20
2023-02-01T13:07:55.735Z,3.20
2023-02-01T13:10:34.604Z,3.20
2023-02-01T13:13:11.958Z,3.20
2023-02-01T13:15:45.150Z,3.20
2023-02-01T13:18:21.198Z,3.20
2023-02-01T13:20:58.247Z,3.20
2023-02-01T13:23:29.795Z,3.30
2023-02-01T13:26:00.418Z,3.20
2023-02-01T13:28:30.581Z,3.30
2023-02-01T13:31:16.540Z,3.30
2023-02-01T13:33:59.530Z,3.30
2023-02-01T13:36:50.150Z,3.20
2023-02-01T13:39:47.768Z,3.20
2023-02-01T13:42:24.083Z,3.10
2023-02-01T13:44:54.355Z,3.10
2023-02-01T13:47:31.710Z,3.10
2023-02-01T13:50:02.765Z,3.10
2023-02-01T13:52:43.550Z,3.10
2023-02-01T13:55:30.001Z,3.10
2023-02-01T13:58:17.604Z,3.10
2023-02-01T14:00:47.467Z,3.10
2023-02-01T14:03:27.225Z,3.10
2023-02-01T14:06:06.084Z,3.00
2023-02-01T14:08:43.490Z,3.00
2023-02-01T14:11:46.428Z,3.00
2023-02-01T14:14:47.721Z,3.00
2023-02-01T14:17:38.536Z,3.00
2023-02-01T14:20:54.142Z,2.90
2023-02-01T14:23:36.232Z,2.90
2023-02-01T14:26:23.404Z,2.90
2023-02-01T14:28:59.583Z,2.90
2023-02-01T14:31:47.007Z,2.90
2023-02-01T14:34:29.546Z,2.90
2023-02-01T14:37:00.847Z,2.80
2023-02-01T14:39:52.795Z,2.80
2023-02-01T14:42:32.153Z,2.80
2023-02-01T14:45:35.860Z,2.80
2023-02-01T14:48:41.512Z,2.80
2023-02-01T14:51:22.862Z,2.80
2023-02-01T14:53:54.124Z,2.70
2023-02-01T14:56:25.769Z,2.70
2023-02-01T14:58:59.249Z,2.70
2023-02-01T15:01:31.811Z,2.80
2023-02-01T15:04:05.416Z,2.80
2023-02-01T15:06:40.616Z,2.80
2023-02-01T15:09:13.265Z,2.80
2023-02-01T15:12:02.947Z,2.80
2023-02-01T15:14:32.905Z,2.80
2023-02-01T15:17:03.020Z,2.70
2023-02-01T15:19:35.130Z,2.80
2023-02-01T15:22:09.532Z,2.70
2023-02-01T15:24:37.683Z,2.80
2023-02-01T15:27:10.068Z,2.70
2023-02-01T15:29:38.605Z,2.70
2023-02-01T15:32:07.376Z,2.70
2023-02-01T15:34:49.557Z,2.70
2023-02-01T15:37:19.667Z,2.90
2023-02-01T15:40:20.326Z,3.10
2023-02-01T15:42:54.088Z,3.20
2023-02-01T15:45:24.963Z,3.40
2023-02-01T15:47:56.591Z,3.50
2023-02-01T15:50:26.064Z,3.50
2023-02-01T15:52:57.449Z,3.60
2023-02-01T15:55:35.597Z,3.50
2023-02-01T15:58:08.436Z,3.60
2023-02-01T16:00:45.433Z,3.70
2023-02-01T16:03:28.661Z,3.70
2023-02-01T16:05:58.656Z,3.70
2023-02-01T16:08:29.712Z,3.70
2023-02-01T16:11:03.912Z,3.60
2023-02-01T16:13:31.991Z,3.70
2023-02-01T16:16:00.457Z,3.70
2023-02-01T16:18:28.735Z,3.70
2023-02-01T16:20:59.485Z,3.70
2023-02-01T16:23:31.512Z,3.60
2023-02-01T16:26:00.471Z,3.60
2023-02-01T16:28:28.582Z,3.60
2023-02-01T16:30:56.838Z,3.60
2023-02-01T16:33:25.854Z,3.60
2023-02-01T16:35:58.230Z,3.50
2023-02-01T16:38:27.311Z,3.60
2023-02-01T16:40:58.508Z,3.60
2023-02-01T16:43:28.427Z,3.60
2023-02-01T16:46:00.784Z,3.60
2023-02-01T16:48:31.871Z,3.60
2023-02-01T16:51:02.946Z,3.60
2023-02-01T16:53:36.620Z,3.60
2023-02-01T16:56:15.788Z,3.60
2023-02-01T16:58:44.171Z,3.60
2023-02-01T17:01:13.894Z,3.50
2023-02-01T17:03:44.033Z,3.60
2023-02-01T17:06:13.680Z,3.50
2023-02-01T17:08:44.541Z,3.50
2023-02-01T17:11:15.037Z,3.50
2023-02-01T17:13:43.494Z,3.50
2023-02-01T17:16:24.578Z,3.50
2023-02-01T17:19:00.299Z,3.60
2023-02-01T17:21:30.958Z,3.50
2023-02-01T17:24:01.183Z,3.40
2023-02-01T17:26:31.914Z,3.50
2023-02-01T17:29:02.373Z,3.50
2023-02-01T17:31:30.955Z,3.40
2023-02-01T17:33:59.155Z,3.40
2023-02-01T17:36:27.099Z,3.40
2023-02-01T17:39:05.317Z,3.40
2023-02-01T17:41:37.017Z,3.50
2023-02-01T17:44:05.613Z,3.40
2023-02-01T17:46:33.881Z,3.40
2023-02-01T17:49:03.655Z,3.40
2023-02-01T17:51:32.571Z,3.40
2023-02-01T17:54:00.496Z,3.30
2023-02-01T17:56:29.650Z,3.40
2023-02-01T17:59:00.170Z,3.40
2023-02-01T18:01:28.362Z,3.40
2023-02-01T18:03:59.629Z,3.40
2023-02-01T18:06:29.046Z,3.40
2023-02-01T18:08:57.117Z,3.40
2023-02-01T18:11:26.362Z,3.40
2023-02-01T18:13:55.287Z,3.40
2023-02-01T18:16:26.774Z,3.30
2023-02-01T18:18:55.170Z,3.30
2023-02-01T18:21:44.890Z,3.30
2023-02-01T18:24:14.683Z,3.30
2023-02-01T18:26:42.913Z,3.30
2023-02-01T18:29:10.828Z,3.30
2023-02-01T18:31:50.814Z,3.30
2023-02-01T18:34:22.497Z,3.30
2023-02-01T18:36:50.699Z,3.30
2023-02-01T18:39:18.856Z,3.30
2023-02-01T18:41:49.072Z,3.30
2023-02-01T18:44:20.147Z,3.20
2023-02-01T18:46:49.984Z,3.30
2023-02-01T18:49:19.765Z,3.30
2023-02-01T18:51:47.931Z,3.30
2023-02-01T18:54:24.827Z,3.20
2023-02-01T18:56:53.532Z,3.20
2023-02-01T18:59:21.564Z,3.20
2023-02-01T19:01:51.012Z,3.20
2023-02-01T19:04:23.209Z,3.20
2023-02-01T19:06:55.733Z,3.20
2023-02-01T19:09:23.868Z,3.20
2023-02-01T19:11:51.883Z,3.20
2023-02-01T19:14:19.990Z,3.20
2023-02-01T19:16:47.959Z,3.20
2023-02-01T19:19:17.331Z,3.20
2023-02-01T19:21:45.325Z,3.20
2023-02-01T19:24:17.837Z,3.20
2023-02-01T19:26:45.669Z,3.10
2023-02-01T19:29:14.256Z,3.20
2023-02-01T19:31:44.606Z,3.20
2023-02-01T19:34:13.247Z,3.20
2023-02-01T19:36:43.685Z,3.20
2023-02-01T19:39:14.037Z,3.20
2023-02-01T19:41:42.132Z,3.20
2023-02-01T19:44:11.559Z,3.10
2023-02-01T19:46:39.754Z,3.20
2023-02-01T19:49:12.174Z,3.20
2023-02-01T19:51:41.977Z,3.20
2023-02-01T19:54:11.840Z,3.20
2023-02-01T19:56:40.052Z,3.20
2023-02-01T19:59:08.681Z,3.20
2023-02-01T20:01:37.272Z,3.10
2023-02-01T20:04:06.454Z,3.20
2023-02-01T20:06:38.704Z,3.20
2023-02-01T20:09:07.715Z,3.20
2023-02-01T20:11:37.032Z,3.20
2023-02-01T20:14:27.271Z,3.20
2023-02-01T20:17:17.817Z,3.10
2023-02-01T20:19:45.984Z,3.10
2023-02-01T20:22:20.787Z,3.10
2023-02-01T20:24:59.235Z,3.10
2023-02-01T20:27:29.815Z,3.20
2023-02-01T20:29:57.824Z,3.20
2023-02-01T20:32:25.915Z,3.10
2023-02-01T20:34:54.463Z,3.20
2023-02-01T20:37:22.835Z,3.10
2023-02-01T20:39:53.675Z,3.20
2023-02-01T20:42:21.673Z,3.20
2023-02-01T20:44:51.050Z,3.10
2023-02-01T20:47:19.094Z,3.20
2023-02-01T20:49:47.879Z,3.10
2023-02-01T20:52:16.043Z,3.10
2023-02-01T20:54:44.422Z,3.20
2023-02-01T20:57:12.579Z,3.20
2023-02-01T20:59:42.629Z,3.20
2023-02-01T21:02:12.431Z,3.10
2023-02-01T21:04:40.357Z,3.10
2023-02-01T21:07:08.311Z,3.10
2023-02-01T21:09:36.366Z,3.10
2023-02-01T21:12:05.382Z,3.10
2023-02-01T21:14:33.471Z,3.10
2023-02-01T21:17:01.550Z,3.10
2023-02-01T21:19:42.920Z,3.10
2023-02-01T21:22:16.820Z,3.10
2023-02-01T21:24:44.822Z,3.10
2023-02-01T21:27:13.380Z,3.10
2023-02-01T21:29:44.439Z,3.10
2023-02-01T21:32:13.234Z,3.10
2023-02-01T21:34:42.572Z,3.10
2023-02-01T21:37:10.673Z,3.10
2023-02-01T21:39:38.687Z,3.10
2023-02-01T21:42:16.688Z,3.10
2023-02-01T21:44:46.257Z,3.10
2023-02-01T21:47:16.592Z,3.10
2023-02-01T21:49:46.483Z,3.10
2023-02-01T21:52:15.873Z,3.10
2023-02-01T21:54:44.205Z,3.10
2023-02-01T21:57:12.959Z,3.10
2023-02-01T21:59:41.954Z,3.10
2023-02-01T22:02:14.452Z,3.10
2023-02-01T22:04:42.327Z,3.10
2023-02-01T22:07:12.225Z,3.10
2023-02-01T22:09:41.263Z,3.10
2023-02-01T22:12:12.663Z,3.10
2023-02-01T22:14:44.582Z,3.10
2023-02-01T22:17:13.448Z,3.10
2023-02-01T22:19:42.431Z,3.10
2023-02-01T22:22:12.671Z,3.00
2023-02-01T22:24:40.880Z,3.10
2023-02-01T22:27:13.728Z,3.00
2023-02-01T22:29:43.623Z,3.10
2023-02-01T22:32:13.667Z,3.00
2023-02-01T22:34:42.340Z,3.00
2023-02-01T22:37:12.312Z,3.10
2023-02-01T22:39:40.838Z,3.10
2023-02-01T22:42:08.808Z,3.00
2023-02-01T22:44:36.826Z,3.00
2023-02-01T22:47:04.959Z,3.00
2023-02-01T22:49:32.940Z,3.00
2023-02-01T22:52:01.587Z,3.00
2023-02-01T22:54:31.283Z,3.00
2023-02-01T22:57:00.229Z,3.00
2023-02-01T22:59:28.240Z,3.00
2023-02-01T23:01:56.344Z,3.00
2023-02-01T23:04:24.315Z,3.00
2023-02-01T23:06:52.756Z,3.00
2023-02-01T23:09:23.510Z,3.00
2023-02-01T23:11:54.076Z,2.90
2023-02-01T23:14:22.315Z,3.00
2023-02-01T23:16:50.883Z,3.00
2023-02-01T23:19:20.471Z,3.00
2023-02-01T23:21:48.701Z,3.00
2023-02-01T23:24:16.777Z,3.00
2023-02-01T23:26:44.862Z,3.00
2023-02-01T23:29:18.616Z,3.00
2023-02-01T23:31:46.853Z,3.00
2023-02-01T23:34:33.788Z,3.00
2023-02-01T23:37:20.560Z,3.00
2023-02-01T23:40:02.144Z,3.00
2023-02-01T23:42:30.153Z,3.00
2023-02-01T23:44:59.568Z,3.00
2023-02-01T23:47:27.548Z,3.00
2023-02-01T23:49:55.551Z,3.00
2023-02-01T23:52:23.563Z,3.00
2023-02-01T23:54:51.559Z,3.00
2023-02-01T23:57:19.535Z,3.00
2023-02-01T23:59:48.517Z,3.00
